createdAt,value
2023-08-25T00:00:21.455Z,7.00
2023-08-25T00:02:48.510Z,7.22
2023-08-25T00:05:15.537Z,7.30
2023-08-25T00:07:42.492Z,7.63
2023-08-25T00:10:09.535Z,7.47
2023-08-25T00:12:36.751Z,7.57
2023-08-25T00:15:04.266Z,7.60
2023-08-25T00:17:31.126Z,6.85
2023-08-25T00:19:58.047Z,6.90
2023-08-25T00:22:24.931Z,6.95
2023-08-25T00:24:54.144Z,6.80
2023-08-25T00:27:21.034Z,6.72
2023-08-25T00:29:49.298Z,6.85
2023-08-25T00:32:16.143Z,6.10
2023-08-25T00:34:42.952Z,6.63
2023-08-25T00:37:09.709Z,6.60
2023-08-25T00:39:36.568Z,6.88
2023-08-25T00:42:03.478Z,7.05
2023-08-25T00:44:30.373Z,6.82
2023-08-25T00:46:57.866Z,7.07
2023-08-25T00:49:25.537Z,6.85
2023-08-25T00:51:54.035Z,6.15
2023-08-25T00:54:27.247Z,6.70
2023-08-25T00:56:54.479Z,7.05
2023-08-25T00:59:22.293Z,6.10
2023-08-25T01:01:49.804Z,5.95
2023-08-25T01:04:16.751Z,6.68
2023-08-25T01:06:43.623Z,6.32
2023-08-25T01:09:13.983Z,6.50
2023-08-25T01:12:05.902Z,6.93
2023-08-25T01:14:51.429Z,6.50
2023-08-25T01:17:49.252Z,6.18
2023-08-25T01:20:18.606Z,7.28
2023-08-25T01:23:01.514Z,6.13
2023-08-25T01:25:32.454Z,7.28
2023-08-25T01:28:04.752Z,6.95
2023-08-25T01:30:36.754Z,6.70
2023-08-25T01:33:04.808Z,6.72
2023-08-25T01:35:40.811Z,7.10
2023-08-25T01:38:44.322Z,6.22
2023-08-25T01:41:17.041Z,6.15
2023-08-25T01:43:48.495Z,6.53
2023-08-25T01:46:18.310Z,6.43
2023-08-25T01:48:48.300Z,6.68
2023-08-25T01:51:16.385Z,6.25
2023-08-25T01:53:49.736Z,6.88
2023-08-25T01:56:16.591Z,6.45
2023-08-25T01:58:43.406Z,6.55
2023-08-25T02:01:10.296Z,6.78
2023-08-25T02:03:37.428Z,6.47
2023-08-25T02:06:04.515Z,6.30
2023-08-25T02:08:31.462Z,6.80
2023-08-25T02:10:58.324Z,6.80
2023-08-25T02:13:25.296Z,6.60
2023-08-25T02:15:54.272Z,6.22
2023-08-25T02:18:21.091Z,6.25
2023-08-25T02:20:48.045Z,6.60
2023-08-25T02:23:14.849Z,6.60
2023-08-25T02:25:42.353Z,6.40
2023-08-25T02:28:10.036Z,6.18
2023-08-25T02:30:36.981Z,6.70
2023-08-25T02:33:04.087Z,6.40
2023-08-25T02:35:31.039Z,7.15
2023-08-25T02:38:01.751Z,6.10
2023-08-25T02:40:29.467Z,6.78
2023-08-25T02:42:57.458Z,6.28
2023-08-25T02:45:27.434Z,6.10
2023-08-25T02:47:55.546Z,6.68
2023-08-25T02:50:23.055Z,6.22
2023-08-25T02:52:50.425Z,6.40
2023-08-25T02:55:20.359Z,5.78
2023-08-25T02:57:48.415Z,6.13
2023-08-25T03:00:21.603Z,6.13
2023-08-25T03:02:49.842Z,5.97
2023-08-25T03:05:17.813Z,6.00
2023-08-25T03:07:44.805Z,6.43
2023-08-25T03:10:12.174Z,6.05
2023-08-25T03:12:39.374Z,6.80
2023-08-25T03:15:07.082Z,5.93
2023-08-25T03:17:34.241Z,6.35
2023-08-25T03:20:01.159Z,5.78
2023-08-25T03:22:29.198Z,6.55
2023-08-25T03:24:56.082Z,6.60
2023-08-25T03:27:22.977Z,6.43
2023-08-25T03:29:49.875Z,6.63
2023-08-25T03:32:16.726Z,7.03
2023-08-25T03:34:43.618Z,7.20
2023-08-25T03:37:12.711Z,6.55
2023-08-25T03:39:39.868Z,6.25
2023-08-25T03:42:07.189Z,6.35
2023-08-25T03:44:33.984Z,7.07
2023-08-25T03:47:00.867Z,6.63
2023-08-25T03:49:29.651Z,6.38
2023-08-25T03:51:57.735Z,6.95
2023-08-25T03:54:24.628Z,6.93
2023-08-25T03:56:51.496Z,6.72
2023-08-25T03:59:18.330Z,6.47
2023-08-25T04:01:45.195Z,6.70
2023-08-25T04:04:11.992Z,7.03
2023-08-25T04:06:38.916Z,6.75
2023-08-25T04:09:05.847Z,6.90
2023-08-25T04:11:33.513Z,7.10
2023-08-25T04:14:00.345Z,7.30
2023-08-25T04:16:27.281Z,7.25
2023-08-25T04:18:54.142Z,7.40
2023-08-25T04:21:20.955Z,7.00
2023-08-25T04:23:47.826Z,6.82
2023-08-25T04:26:14.754Z,7.53
2023-08-25T04:28:41.696Z,7.15
2023-08-25T04:31:08.602Z,7.47
2023-08-25T04:33:35.671Z,7.07
2023-08-25T04:36:04.229Z,7.95
2023-08-25T04:38:31.079Z,7.38
2023-08-25T04:40:57.991Z,7.22
2023-08-25T04:43:24.853Z,7.13
2023-08-25T04:45:51.752Z,8.48
2023-08-25T04:48:18.719Z,8.32
2023-08-25T04:50:45.616Z,7.75
2023-08-25T04:53:12.421Z,7.78
2023-08-25T04:55:39.277Z,7.45
2023-08-25T04:58:06.122Z,7.32
2023-08-25T05:00:33.145Z,7.53
2023-08-25T05:03:00.513Z,7.40
2023-08-25T05:05:27.535Z,6.85
2023-08-25T05:07:54.600Z,7.68
2023-08-25T05:10:21.637Z,8.50
2023-08-25T05:12:48.403Z,7.47
2023-08-25T05:15:15.281Z,8.95
2023-08-25T05:17:42.188Z,8.18
2023-08-25T05:20:11.331Z,8.65
2023-08-25T05:22:38.151Z,8.90
2023-08-25T05:25:05.272Z,8.18
2023-08-25T05:27:32.077Z,7.95
2023-08-25T05:29:59.003Z,7.97
2023-08-25T05:32:25.807Z,8.20
2023-08-25T05:34:52.573Z,8.10
2023-08-25T05:37:19.385Z,8.23
2023-08-25T05:39:46.181Z,8.15
2023-08-25T05:42:13.039Z,8.57
2023-08-25T05:44:39.905Z,8.32
2023-08-25T05:47:06.718Z,8.65
2023-08-25T05:49:33.736Z,8.80
2023-08-25T05:52:00.546Z,7.55
2023-08-25T05:54:27.514Z,8.05
2023-08-25T05:56:57.306Z,8.05
2023-08-25T05:59:24.183Z,8.73
2023-08-25T06:01:51.145Z,8.32
2023-08-25T06:04:18.186Z,8.93
2023-08-25T06:06:45.398Z,8.10
2023-08-25T06:09:13.925Z,8.88
2023-08-25T06:11:40.779Z,8.45
2023-08-25T06:14:08.457Z,7.95
2023-08-25T06:16:39.629Z,7.80
2023-08-25T06:19:07.477Z,8.32
2023-08-25T06:21:34.700Z,8.45
2023-08-25T06:24:01.618Z,8.32
2023-08-25T06:26:28.474Z,7.68
2023-08-25T06:28:57.769Z,8.32
2023-08-25T06:31:24.805Z,8.38
2023-08-25T06:33:51.708Z,8.55
2023-08-25T06:36:18.543Z,8.15
2023-08-25T06:38:54.720Z,7.93
2023-08-25T06:41:23.930Z,7.65
2023-08-25T06:43:51.036Z,7.65
2023-08-25T06:46:17.895Z,7.53
2023-08-25T06:48:44.823Z,7.88
2023-08-25T06:51:11.699Z,7.55
2023-08-25T06:53:38.589Z,7.70
2023-08-25T06:56:05.574Z,7.10
2023-08-25T06:58:32.407Z,7.05
2023-08-25T07:00:59.359Z,7.68
2023-08-25T07:03:26.343Z,8.23
2023-08-25T07:05:59.376Z,9.57
2023-08-25T07:08:26.435Z,8.05
2023-08-25T07:10:53.881Z,8.38
2023-08-25T07:13:21.273Z,7.88
2023-08-25T07:15:48.128Z,8.10
2023-08-25T07:18:15.048Z,7.15
2023-08-25T07:20:41.945Z,7.40
2023-08-25T07:23:08.821Z,7.40
2023-08-25T07:25:37.071Z,7.28
2023-08-25T07:28:04.118Z,7.68
2023-08-25T07:30:30.935Z,6.70
2023-08-25T07:32:57.785Z,7.25
2023-08-25T07:35:24.595Z,7.43
2023-08-25T07:37:54.534Z,8.13
2023-08-25T07:40:22.224Z,8.02
2023-08-25T07:42:49.824Z,7.20
2023-08-25T07:45:16.735Z,8.15
2023-08-25T07:47:43.683Z,7.55
2023-08-25T07:50:11.007Z,7.53
2023-08-25T07:52:37.810Z,7.78
2023-08-25T07:55:05.813Z,7.45
2023-08-25T07:57:34.000Z,6.75
2023-08-25T08:00:00.898Z,7.15
2023-08-25T08:02:27.823Z,7.53
2023-08-25T08:04:54.653Z,6.72
2023-08-25T08:07:21.560Z,7.03
2023-08-25T08:09:48.403Z,7.75
2023-08-25T08:12:15.398Z,6.82
2023-08-25T08:14:46.205Z,7.15
2023-08-25T08:17:14.355Z,6.72
2023-08-25T08:19:42.111Z,7.22
2023-08-25T08:22:09.170Z,6.90
2023-08-25T08:24:49.906Z,6.50
2023-08-25T08:27:18.354Z,7.25
2023-08-25T08:29:47.130Z,7.50
2023-08-25T08:32:14.842Z,6.97
2023-08-25T08:34:42.071Z,6.75
2023-08-25T08:37:09.419Z,7.30
2023-08-25T08:39:39.966Z,6.75
2023-08-25T08:42:13.514Z,7.15
2023-08-25T08:44:47.304Z,6.75
2023-08-25T08:47:17.160Z,7.75
2023-08-25T08:49:45.553Z,6.57
2023-08-25T08:52:16.233Z,7.53
2023-08-25T08:57:16.332Z,6.38
2023-08-25T08:59:45.424Z,5.90
2023-08-25T09:02:15.374Z,9.48
2023-08-25T09:04:43.042Z,6.77
2023-08-25T09:07:13.221Z,6.65
2023-08-25T09:09:42.862Z,7.13
2023-08-25T09:12:12.171Z,7.05
2023-08-25T09:14:41.091Z,6.35
2023-08-25T09:17:08.868Z,6.82
2023-08-25T09:19:35.683Z,6.50
2023-08-25T09:22:03.822Z,7.28
2023-08-25T09:24:33.228Z,7.45
2023-08-25T09:27:02.179Z,7.60
2023-08-25T09:29:42.936Z,7.70
2023-08-25T09:32:17.806Z,7.05
2023-08-25T09:34:45.083Z,7.32
2023-08-25T09:37:14.360Z,7.43
2023-08-25T09:39:44.868Z,7.22
2023-08-25T09:42:12.024Z,7.35
2023-08-25T09:44:41.025Z,6.82
2023-08-25T09:47:12.079Z,7.10
2023-08-25T09:49:41.423Z,7.32
2023-08-25T09:52:08.374Z,7.78
2023-08-25T09:54:36.117Z,7.45
2023-08-25T09:57:03.615Z,7.60
2023-08-25T09:59:31.536Z,7.28
2023-08-25T10:01:59.215Z,7.53
2023-08-25T10:04:26.202Z,7.45
2023-08-25T10:06:54.458Z,7.38
2023-08-25T10:09:22.566Z,6.90
2023-08-25T10:11:50.051Z,7.65
2023-08-25T10:14:21.631Z,7.95
2023-08-25T10:16:53.677Z,7.80
2023-08-25T10:19:24.816Z,6.90
2023-08-25T10:21:54.403Z,7.32
2023-08-25T10:24:24.868Z,7.53
2023-08-25T10:26:53.590Z,7.68
2023-08-25T10:29:24.214Z,7.80
2023-08-25T10:34:35.510Z,6.73
2023-08-25T10:37:15.084Z,8.10
2023-08-25T10:40:00.730Z,7.95
2023-08-25T10:42:33.829Z,7.50
2023-08-25T10:45:11.069Z,7.28
2023-08-25T10:47:48.381Z,7.28
2023-08-25T10:50:21.699Z,7.70
2023-08-25T10:52:54.126Z,7.68
2023-08-25T10:55:32.254Z,7.70
2023-08-25T10:58:06.659Z,6.93
2023-08-25T11:00:44.636Z,6.90
2023-08-25T11:03:11.938Z,8.00
2023-08-25T11:05:44.889Z,7.70
2023-08-25T11:08:29.892Z,7.53
2023-08-25T11:11:19.230Z,8.00
2023-08-25T11:13:47.886Z,7.88
2023-08-25T11:16:17.206Z,9.15
2023-08-25T11:18:45.528Z,7.57
2023-08-25T11:21:14.772Z,7.35
2023-08-25T11:23:43.479Z,8.13
2023-08-25T11:26:10.850Z,7.65
2023-08-25T11:28:40.972Z,6.88
2023-08-25T11:31:08.907Z,7.10
2023-08-25T11:33:37.997Z,7.13
2023-08-25T11:36:07.247Z,6.85
2023-08-25T11:38:34.468Z,6.38
2023-08-25T11:41:03.029Z,6.38
2023-08-25T11:43:33.979Z,6.35
2023-08-25T11:46:01.280Z,5.95
2023-08-25T11:48:28.809Z,6.45
2023-08-25T11:50:55.675Z,7.00
2023-08-25T11:53:22.596Z,7.07
2023-08-25T11:56:05.105Z,6.60
2023-08-25T11:58:36.405Z,6.00
2023-08-25T12:01:09.005Z,6.75
2023-08-25T12:03:38.515Z,6.40
2023-08-25T12:06:10.890Z,6.47
2023-08-25T12:08:40.377Z,5.80
2023-08-25T12:11:09.982Z,6.97
2023-08-25T12:13:46.602Z,5.53
2023-08-25T12:16:16.420Z,6.13
2023-08-25T12:18:44.271Z,6.13
2023-08-25T12:21:11.322Z,5.72
2023-08-25T12:23:43.557Z,5.47
2023-08-25T12:26:14.020Z,5.45
2023-08-25T12:28:44.289Z,5.82
2023-08-25T12:31:12.026Z,6.00
2023-08-25T12:33:40.273Z,6.18
2023-08-25T12:36:08.826Z,6.75
2023-08-25T12:38:36.589Z,6.30
2023-08-25T12:41:05.575Z,6.30
2023-08-25T12:43:34.429Z,6.40
2023-08-25T12:46:01.397Z,6.20
2023-08-25T12:48:31.187Z,5.80
2023-08-25T12:50:58.449Z,6.10
2023-08-25T12:53:25.603Z,6.15
2023-08-25T12:55:55.369Z,5.57
2023-08-25T12:58:22.305Z,5.95
2023-08-25T13:00:50.572Z,6.50
2023-08-25T13:03:19.030Z,6.10
2023-08-25T13:05:46.754Z,6.32
2023-08-25T13:08:14.772Z,5.80
2023-08-25T13:10:41.571Z,5.75
2023-08-25T13:13:08.445Z,6.40
2023-08-25T13:15:36.124Z,6.07
2023-08-25T13:18:03.264Z,5.80
2023-08-25T13:20:30.155Z,5.95
2023-08-25T13:22:56.998Z,6.53
2023-08-25T13:25:23.793Z,7.22
2023-08-25T13:27:50.633Z,6.22
2023-08-25T13:30:17.544Z,5.95
2023-08-25T13:32:44.453Z,6.50
2023-08-25T13:35:11.427Z,6.10
2023-08-25T13:37:38.429Z,6.20
2023-08-25T13:40:05.845Z,6.00
2023-08-25T13:42:32.877Z,6.10
2023-08-25T13:45:00.374Z,5.97
2023-08-25T13:47:27.445Z,5.45
2023-08-25T13:49:54.327Z,5.65
2023-08-25T13:52:21.312Z,5.80
2023-08-25T13:54:49.727Z,6.30
2023-08-25T13:57:17.075Z,5.85
2023-08-25T13:59:44.406Z,5.63
2023-08-25T14:02:11.322Z,5.65
2023-08-25T14:04:38.225Z,6.10
2023-08-25T14:07:05.262Z,5.55
2023-08-25T14:09:32.200Z,6.68
2023-08-25T14:11:59.549Z,7.25
2023-08-25T14:14:26.341Z,5.70
2023-08-25T14:16:53.212Z,10.35
2023-08-25T14:19:20.113Z,5.68
2023-08-25T14:21:47.055Z,5.57
2023-08-25T14:24:13.910Z,4.90
2023-08-25T14:26:40.793Z,5.18
2023-08-25T14:29:08.371Z,6.18
2023-08-25T14:31:35.218Z,6.50
2023-08-25T14:34:02.104Z,5.30
2023-08-25T14:36:29.424Z,5.70
2023-08-25T14:38:56.251Z,6.30
2023-08-25T14:41:23.181Z,5.53
2023-08-25T14:43:50.065Z,5.85
2023-08-25T14:46:17.080Z,6.03
2023-08-25T14:48:47.481Z,5.22
2023-08-25T14:53:41.748Z,4.80
2023-08-25T14:56:11.166Z,5.20
2023-08-25T14:58:38.090Z,5.10
2023-08-25T15:01:06.005Z,5.53
2023-08-25T15:03:32.955Z,5.75
2023-08-25T15:06:02.219Z,6.35
2023-08-25T15:08:29.881Z,5.63
2023-08-25T15:10:57.317Z,5.07
2023-08-25T15:13:25.022Z,6.40
2023-08-25T15:15:52.355Z,5.35
2023-08-25T15:18:19.319Z,4.82
2023-08-25T15:20:58.946Z,5.13
2023-08-25T15:23:25.831Z,5.00
2023-08-25T15:25:55.804Z,5.22
2023-08-25T15:28:28.047Z,5.25
2023-08-25T15:31:02.590Z,5.10
2023-08-25T15:33:30.060Z,4.80
2023-08-25T15:35:56.980Z,5.32
2023-08-25T15:38:24.711Z,5.30
2023-08-25T15:40:51.647Z,5.78
2023-08-25T15:43:18.788Z,5.40
2023-08-25T15:45:51.475Z,5.15
2023-08-25T15:48:19.594Z,5.32
2023-08-25T15:50:47.633Z,5.72
2023-08-25T15:53:16.546Z,5.85
2023-08-25T15:55:44.865Z,5.38
2023-08-25T15:58:11.681Z,5.18
2023-08-25T16:00:39.219Z,5.45
2023-08-25T16:03:06.333Z,5.22
2023-08-25T16:05:33.799Z,6.15
2023-08-25T16:08:00.786Z,6.05
2023-08-25T16:10:27.816Z,5.88
2023-08-25T16:12:57.986Z,5.30
2023-08-25T16:15:32.113Z,5.80
2023-08-25T16:18:00.046Z,5.72
2023-08-25T16:20:33.348Z,5.70
2023-08-25T16:23:00.224Z,5.68
2023-08-25T16:25:28.623Z,8.05
2023-08-25T16:27:55.600Z,5.85
2023-08-25T16:30:27.282Z,6.18
2023-08-25T16:32:54.647Z,5.80
2023-08-25T16:35:22.085Z,6.00
2023-08-25T16:37:49.034Z,5.72
2023-08-25T16:40:15.903Z,5.40
2023-08-25T16:42:43.079Z,5.95
2023-08-25T16:45:10.347Z,6.25
2023-08-25T16:47:37.933Z,5.68
2023-08-25T16:50:05.618Z,6.15
2023-08-25T16:52:32.995Z,5.45
2023-08-25T16:54:59.937Z,5.95
2023-08-25T16:57:26.772Z,6.10
2023-08-25T16:59:53.654Z,6.07
2023-08-25T17:02:20.499Z,6.00
2023-08-25T17:04:47.331Z,8.43
2023-08-25T17:07:16.296Z,8.30
2023-08-25T17:09:44.520Z,6.53
2023-08-25T17:12:11.492Z,6.60
2023-08-25T17:14:38.889Z,7.72
2023-08-25T17:17:05.944Z,6.38
2023-08-25T17:19:33.205Z,5.72
2023-08-25T17:22:00.055Z,6.05
2023-08-25T17:24:26.929Z,6.00
2023-08-25T17:26:53.813Z,6.18
2023-08-25T17:29:20.632Z,6.07
2023-08-25T17:31:48.026Z,6.18
2023-08-25T17:34:15.224Z,6.85
2023-08-25T17:36:42.187Z,6.45
2023-08-25T17:39:09.986Z,6.38
2023-08-25T17:41:36.874Z,6.30
2023-08-25T17:44:03.871Z,6.57
2023-08-25T17:46:30.907Z,6.45
2023-08-25T17:48:57.982Z,6.15
2023-08-25T17:51:24.891Z,5.90
2023-08-25T17:53:51.718Z,7.47
2023-08-25T17:56:18.612Z,6.15
2023-08-25T17:58:45.374Z,6.75
2023-08-25T18:01:12.523Z,7.20
2023-08-25T18:03:40.442Z,6.47
2023-08-25T18:06:07.792Z,6.30
2023-08-25T18:08:37.001Z,6.30
2023-08-25T18:11:04.000Z,6.53
2023-08-25T18:13:32.054Z,6.88
2023-08-25T18:15:59.276Z,6.97
2023-08-25T18:18:26.251Z,6.40
2023-08-25T18:20:57.359Z,6.13
2023-08-25T18:23:26.644Z,6.88
2023-08-25T18:25:57.073Z,6.95
2023-08-25T18:28:24.397Z,6.68
2023-08-25T18:31:04.092Z,6.45
2023-08-25T18:33:31.704Z,6.77
2023-08-25T18:35:58.604Z,6.97
2023-08-25T18:38:25.903Z,6.57
2023-08-25T18:40:53.013Z,6.70
2023-08-25T18:43:20.051Z,6.93
2023-08-25T18:45:50.254Z,7.13
2023-08-25T18:48:17.224Z,6.90
2023-08-25T18:50:44.118Z,6.57
2023-08-25T18:53:11.044Z,6.65
2023-08-25T18:55:37.851Z,7.07
2023-08-25T18:58:06.922Z,6.85
2023-08-25T19:00:34.117Z,6.88
2023-08-25T19:03:02.418Z,6.68
2023-08-25T19:05:29.351Z,8.70
2023-08-25T19:07:56.387Z,8.00
2023-08-25T19:10:23.584Z,7.07
2023-08-25T19:12:50.667Z,7.32
2023-08-25T19:15:17.647Z,7.18
2023-08-25T19:17:44.493Z,6.65
2023-08-25T19:20:12.622Z,7.35
2023-08-25T19:22:40.398Z,7.15
2023-08-25T19:25:09.503Z,7.32
2023-08-25T19:27:36.549Z,6.60
2023-08-25T19:30:06.520Z,7.10
2023-08-25T19:32:33.737Z,7.20
2023-08-25T19:35:02.169Z,7.45
2023-08-25T19:37:33.593Z,6.68
2023-08-25T19:40:01.206Z,6.80
2023-08-25T19:42:28.415Z,7.65
2023-08-25T19:44:55.529Z,7.60
2023-08-25T19:47:23.075Z,7.55
2023-08-25T19:49:50.187Z,7.95
2023-08-25T19:52:17.129Z,8.05
2023-08-25T19:54:44.342Z,8.00
2023-08-25T19:57:11.216Z,7.53
2023-08-25T19:59:38.107Z,7.32
2023-08-25T20:02:04.934Z,7.68
2023-08-25T20:04:31.786Z,7.30
2023-08-25T20:06:58.618Z,8.02
2023-08-25T20:09:26.058Z,7.15
2023-08-25T20:11:53.078Z,7.50
2023-08-25T20:14:19.971Z,8.05
2023-08-25T20:16:46.843Z,7.57
2023-08-25T20:19:13.708Z,7.90
2023-08-25T20:21:40.576Z,7.93
2023-08-25T20:24:08.287Z,7.93
2023-08-25T20:26:35.070Z,8.30
2023-08-25T20:29:02.047Z,8.13
2023-08-25T20:31:28.861Z,8.02
2023-08-25T20:33:55.723Z,7.78
2023-08-25T20:36:22.562Z,8.80
2023-08-25T20:38:49.434Z,8.15
2023-08-25T20:41:16.409Z,7.90
2023-08-25T20:43:43.244Z,7.55
2023-08-25T20:46:21.172Z,8.05
2023-08-25T20:48:50.558Z,7.38
2023-08-25T20:51:22.862Z,7.95
2023-08-25T20:53:51.075Z,7.75
2023-08-25T20:56:18.012Z,7.57
2023-08-25T20:58:44.913Z,7.80
2023-08-25T21:01:11.962Z,8.18
2023-08-25T21:03:39.800Z,7.57
2023-08-25T21:06:07.964Z,7.70
2023-08-25T21:08:38.209Z,7.57
2023-08-25T21:11:05.144Z,8.05
2023-08-25T21:13:32.911Z,8.48
2023-08-25T21:16:00.517Z,8.45
2023-08-25T21:18:27.618Z,7.93
2023-08-25T21:20:55.443Z,7.82
2023-08-25T21:23:23.608Z,8.35
2023-08-25T21:25:58.310Z,7.70
2023-08-25T21:28:26.338Z,7.80
2023-08-25T21:30:57.365Z,7.68
2023-08-25T21:35:52.417Z,7.68
2023-08-25T21:38:19.804Z,8.10
2023-08-25T21:40:47.171Z,8.52
2023-08-25T21:43:14.980Z,8.57
2023-08-25T21:45:45.866Z,7.68
2023-08-25T21:50:40.728Z,8.10
2023-08-25T21:53:07.689Z,7.82
2023-08-25T21:55:35.074Z,8.57
2023-08-25T21:58:02.074Z,7.95
2023-08-25T22:00:29.065Z,8.63
2023-08-25T22:02:56.213Z,8.02
2023-08-25T22:05:23.363Z,8.05
2023-08-25T22:07:50.241Z,8.38
2023-08-25T22:10:17.145Z,7.80
2023-08-25T22:12:44.085Z,7.88
2023-08-25T22:15:11.167Z,7.72
2023-08-25T22:17:39.775Z,8.20
2023-08-25T22:20:08.093Z,8.20
2023-08-25T22:22:35.235Z,8.05
2023-08-25T22:25:02.251Z,7.57
2023-08-25T22:27:29.242Z,7.90
2023-08-25T22:29:56.149Z,8.35
2023-08-25T22:34:52.718Z,8.68
2023-08-25T22:37:19.624Z,8.98
2023-08-25T22:39:46.407Z,8.82
2023-08-25T22:42:14.727Z,8.27
2023-08-25T22:44:41.530Z,8.57
2023-08-25T22:47:08.789Z,8.20
2023-08-25T22:49:36.109Z,8.00
2023-08-25T22:52:03.390Z,7.93
2023-08-25T22:54:31.123Z,8.93
2023-08-25T22:56:59.502Z,8.10
2023-08-25T22:59:26.390Z,8.57
2023-08-25T23:01:54.445Z,8.00
2023-08-25T23:04:21.422Z,7.85
2023-08-25T23:06:49.106Z,8.15
2023-08-25T23:09:16.064Z,8.27
2023-08-25T23:11:42.978Z,7.68
2023-08-25T23:14:09.841Z,8.10
2023-08-25T23:16:36.677Z,8.20
2023-08-25T23:19:04.760Z,7.80
2023-08-25T23:21:31.655Z,7.53
2023-08-25T23:23:58.502Z,8.95
2023-08-25T23:26:25.530Z,8.60
2023-08-25T23:28:52.695Z,8.05
2023-08-25T23:31:21.134Z,9.18
2023-08-25T23:33:48.227Z,8.48
2023-08-25T23:36:15.093Z,9.00
2023-08-25T23:38:41.913Z,8.50
2023-08-25T23:41:09.143Z,8.30
2023-08-25T23:43:35.995Z,8.55
2023-08-25T23:46:07.455Z,8.27
2023-08-25T23:48:35.003Z,8.18
2023-08-25T23:51:02.124Z,8.27
2023-08-25T23:53:29.137Z,8.43
2023-08-25T23:55:56.445Z,8.30
2023-08-25T23:58:23.301Z,8.57
